sensor_id;sensor_type;location;lat;lon;timestamp;temperature;humidity
8896;DHT22;4484;48.928;10.066;2023-09-19T00:00:49;16.20;99.90
8896;DHT22;4484;48.928;10.066;2023-09-19T00:03:16;16.20;99.90
8896;DHT22;4484;48.928;10.066;2023-09-19T00:05:44;16.20;99.90
8896;DHT22;4484;48.928;10.066;2023-09-19T00:08:12;16.20;99.90
8896;DHT22;4484;48.928;10.066;2023-09-19T00:10:42;16.20;99.90
8896;DHT22;4484;48.928;10.066;2023-09-19T00:13:10;16.20;99.90
8896;DHT22;4484;48.928;10.066;2023-09-19T00:15:47;16.10;99.90
8896;DHT22;4484;48.928;10.066;2023-09-19T00:18:18;16.10;99.90
8896;DHT22;4484;48.928;10.066;2023-09-19T00:20:48;16.10;99.90
8896;DHT22;4484;48.928;10.066;2023-09-19T00:23:17;16.00;99.90
8896;DHT22;4484;48.928;10.066;2023-09-19T00:25:44;16.00;99.90
8896;DHT22;4484;48.928;10.066;2023-09-19T00:28:12;16.00;99.90
8896;DHT22;4484;48.928;10.066;2023-09-19T00:30:43;16.00;99.90
8896;DHT22;4484;48.928;10.066;2023-09-19T00:33:11;15.90;99.90
8896;DHT22;4484;48.928;10.066;2023-09-19T00:35:51;15.90;99.90
8896;DHT22;4484;48.928;10.066;2023-09-19T00:38:19;15.90;99.90
8896;DHT22;4484;48.928;10.066;2023-09-19T00:40:49;15.90;99.90
8896;DHT22;4484;48.928;10.066;2023-09-19T00:43:22;15.80;99.90
8896;DHT22;4484;48.928;10.066;2023-09-19T00:45:54;15.80;99.90
8896;DHT22;4484;48.928;10.066;2023-09-19T00:48:22;15.80;99.90
8896;DHT22;4484;48.928;10.066;2023-09-19T00:50:52;15.70;99.90
8896;DHT22;4484;48.928;10.066;2023-09-19T00:53:21;15.70;99.90
8896;DHT22;4484;48.928;10.066;2023-09-19T00:55:51;15.70;99.90
8896;DHT22;4484;48.928;10.066;2023-09-19T00:58:19;15.60;99.90
8896;DHT22;4484;48.928;10.066;2023-09-19T01:00:48;15.60;99.90
8896;DHT22;4484;48.928;10.066;2023-09-19T01:03:15;15.60;99.90
8896;DHT22;4484;48.928;10.066;2023-09-19T01:05:42;15.60;99.90
8896;DHT22;4484;48.928;10.066;2023-09-19T01:08:09;15.60;99.90
8896;DHT22;4484;48.928;10.066;2023-09-19T01:10:46;15.50;99.90
8896;DHT22;4484;48.928;10.066;2023-09-19T01:16:23;15.40;99.90
8896;DHT22;4484;48.928;10.066;2023-09-19T01:30:39;15.30;99.90
8896;DHT22;4484;48.928;10.066;2023-09-19T01:33:07;15.30;99.90
8896;DHT22;4484;48.928;10.066;2023-09-19T01:35:34;15.30;99.90
8896;DHT22;4484;48.928;10.066;2023-09-19T01:38:08;15.30;99.90
8896;DHT22;4484;48.928;10.066;2023-09-19T01:40:42;15.30;99.90
8896;DHT22;4484;48.928;10.066;2023-09-19T01:43:32;15.30;99.90
8896;DHT22;4484;48.928;10.066;2023-09-19T01:48:50;15.30;99.90
8896;DHT22;4484;48.928;10.066;2023-09-19T01:51:34;15.20;99.90
8896;DHT22;4484;48.928;10.066;2023-09-19T01:54:09;15.20;99.90
8896;DHT22;4484;48.928;10.066;2023-09-19T01:56:45;15.20;99.90
8896;DHT22;4484;48.928;10.066;2023-09-19T01:59:20;15.10;99.90
8896;DHT22;4484;48.928;10.066;2023-09-19T02:01:49;15.10;99.90
8896;DHT22;4484;48.928;10.066;2023-09-19T02:04:17;15.10;99.90
8896;DHT22;4484;48.928;10.066;2023-09-19T02:06:44;15.00;99.90
8896;DHT22;4484;48.928;10.066;2023-09-19T02:09:15;15.00;99.90
8896;DHT22;4484;48.928;10.066;2023-09-19T02:11:42;14.90;99.90
8896;DHT22;4484;48.928;10.066;2023-09-19T02:14:09;15.00;99.90
8896;DHT22;4484;48.928;10.066;2023-09-19T02:16:36;15.00;99.90
8896;DHT22;4484;48.928;10.066;2023-09-19T02:19:03;15.00;99.90
8896;DHT22;4484;48.928;10.066;2023-09-19T02:21:32;14.90;99.90
8896;DHT22;4484;48.928;10.066;2023-09-19T02:24:00;14.90;99.90
8896;DHT22;4484;48.928;10.066;2023-09-19T02:26:27;15.00;99.90
8896;DHT22;4484;48.928;10.066;2023-09-19T02:28:54;14.90;99.90
8896;DHT22;4484;48.928;10.066;2023-09-19T02:31:21;14.90;99.90
8896;DHT22;4484;48.928;10.066;2023-09-19T02:33:48;14.90;99.90
8896;DHT22;4484;48.928;10.066;2023-09-19T02:36:15;14.90;99.90
8896;DHT22;4484;48.928;10.066;2023-09-19T02:38:44;14.90;99.90
8896;DHT22;4484;48.928;10.066;2023-09-19T02:41:11;14.90;99.90
8896;DHT22;4484;48.928;10.066;2023-09-19T02:43:38;14.90;99.90
8896;DHT22;4484;48.928;10.066;2023-09-19T02:46:06;15.00;99.90
8896;DHT22;4484;48.928;10.066;2023-09-19T02:48:33;15.00;99.90
8896;DHT22;4484;48.928;10.066;2023-09-19T02:51:01;15.00;99.90
8896;DHT22;4484;48.928;10.066;2023-09-19T02:53:32;15.00;99.90
8896;DHT22;4484;48.928;10.066;2023-09-19T02:55:59;15.00;99.90
8896;DHT22;4484;48.928;10.066;2023-09-19T02:58:26;15.10;99.90
8896;DHT22;4484;48.928;10.066;2023-09-19T03:00:54;15.10;99.90
8896;DHT22;4484;48.928;10.066;2023-09-19T03:03:23;15.10;99.90
8896;DHT22;4484;48.928;10.066;2023-09-19T03:05:50;15.10;99.90
8896;DHT22;4484;48.928;10.066;2023-09-19T03:08:21;15.10;99.90
8896;DHT22;4484;48.928;10.066;2023-09-19T03:10:48;15.10;99.90
8896;DHT22;4484;48.928;10.066;2023-09-19T03:13:16;15.10;99.90
8896;DHT22;4484;48.928;10.066;2023-09-19T03:15:43;15.10;99.90
8896;DHT22;4484;48.928;10.066;2023-09-19T03:18:14;15.10;99.90
8896;DHT22;4484;48.928;10.066;2023-09-19T03:20:42;15.10;99.90
8896;DHT22;4484;48.928;10.066;2023-09-19T03:23:08;15.20;99.90
8896;DHT22;4484;48.928;10.066;2023-09-19T03:25:36;15.10;99.90
8896;DHT22;4484;48.928;10.066;2023-09-19T03:28:04;15.10;99.90
8896;DHT22;4484;48.928;10.066;2023-09-19T03:30:35;15.00;99.90
8896;DHT22;4484;48.928;10.066;2023-09-19T03:33:03;15.10;99.90
8896;DHT22;4484;48.928;10.066;2023-09-19T03:35:32;15.00;99.90
8896;DHT22;4484;48.928;10.066;2023-09-19T03:38:00;15.00;99.90
8896;DHT22;4484;48.928;10.066;2023-09-19T03:40:28;14.90;99.90
8896;DHT22;4484;48.928;10.066;2023-09-19T03:42:55;14.90;99.90
8896;DHT22;4484;48.928;10.066;2023-09-19T03:45:23;14.90;99.90
8896;DHT22;4484;48.928;10.066;2023-09-19T03:47:51;14.90;99.90
8896;DHT22;4484;48.928;10.066;2023-09-19T03:50:20;14.80;99.90
8896;DHT22;4484;48.928;10.066;2023-09-19T03:52:48;14.80;99.90
8896;DHT22;4484;48.928;10.066;2023-09-19T03:55:15;14.80;99.90
8896;DHT22;4484;48.928;10.066;2023-09-19T03:57:48;14.80;99.90
8896;DHT22;4484;48.928;10.066;2023-09-19T04:00:15;14.80;99.90
8896;DHT22;4484;48.928;10.066;2023-09-19T04:02:45;14.70;99.90
8896;DHT22;4484;48.928;10.066;2023-09-19T04:05:13;14.70;99.90
8896;DHT22;4484;48.928;10.066;2023-09-19T04:07:40;14.60;99.90
8896;DHT22;4484;48.928;10.066;2023-09-19T04:10:07;14.60;99.90
8896;DHT22;4484;48.928;10.066;2023-09-19T04:12:35;14.60;99.90
8896;DHT22;4484;48.928;10.066;2023-09-19T04:15:03;14.60;99.90
8896;DHT22;4484;48.928;10.066;2023-09-19T04:17:30;14.60;99.90
8896;DHT22;4484;48.928;10.066;2023-09-19T04:20:00;14.60;99.90
8896;DHT22;4484;48.928;10.066;2023-09-19T04:22:27;14.60;99.90
8896;DHT22;4484;48.928;10.066;2023-09-19T04:24:54;14.60;99.90
8896;DHT22;4484;48.928;10.066;2023-09-19T04:27:20;14.60;99.90
8896;DHT22;4484;48.928;10.066;2023-09-19T04:29:47;14.60;99.90
8896;DHT22;4484;48.928;10.066;2023-09-19T04:32:19;14.60;99.90
8896;DHT22;4484;48.928;10.066;2023-09-19T04:34:46;14.50;99.90
8896;DHT22;4484;48.928;10.066;2023-09-19T04:37:15;14.50;99.90
8896;DHT22;4484;48.928;10.066;2023-09-19T04:39:42;14.50;99.90
8896;DHT22;4484;48.928;10.066;2023-09-19T04:42:09;14.60;99.90
8896;DHT22;4484;48.928;10.066;2023-09-19T04:44:38;14.60;99.90
8896;DHT22;4484;48.928;10.066;2023-09-19T04:47:05;14.50;99.90
8896;DHT22;4484;48.928;10.066;2023-09-19T04:49:33;14.60;99.90
8896;DHT22;4484;48.928;10.066;2023-09-19T04:52:00;14.50;99.90
8896;DHT22;4484;48.928;10.066;2023-09-19T04:54:26;14.50;99.90
8896;DHT22;4484;48.928;10.066;2023-09-19T04:56:54;14.50;99.90
8896;DHT22;4484;48.928;10.066;2023-09-19T04:59:20;14.50;99.90
8896;DHT22;4484;48.928;10.066;2023-09-19T05:01:47;14.40;99.90
8896;DHT22;4484;48.928;10.066;2023-09-19T05:04:15;14.40;99.90
8896;DHT22;4484;48.928;10.066;2023-09-19T05:06:42;14.40;99.90
8896;DHT22;4484;48.928;10.066;2023-09-19T05:09:12;14.40;99.90
8896;DHT22;4484;48.928;10.066;2023-09-19T05:11:40;14.40;99.90
8896;DHT22;4484;48.928;10.066;2023-09-19T05:14:07;14.40;99.90
8896;DHT22;4484;48.928;10.066;2023-09-19T05:16:34;14.50;99.90
8896;DHT22;4484;48.928;10.066;2023-09-19T05:19:01;14.50;99.90
8896;DHT22;4484;48.928;10.066;2023-09-19T05:21:30;14.40;99.90
8896;DHT22;4484;48.928;10.066;2023-09-19T05:23:57;14.50;99.90
8896;DHT22;4484;48.928;10.066;2023-09-19T05:26:24;14.50;99.90
8896;DHT22;4484;48.928;10.066;2023-09-19T05:28:51;14.50;99.90
8896;DHT22;4484;48.928;10.066;2023-09-19T05:31:19;14.50;99.90
8896;DHT22;4484;48.928;10.066;2023-09-19T05:33:47;14.50;99.90
8896;DHT22;4484;48.928;10.066;2023-09-19T05:36:14;14.60;99.90
8896;DHT22;4484;48.928;10.066;2023-09-19T05:38:42;14.60;99.90
8896;DHT22;4484;48.928;10.066;2023-09-19T05:41:11;14.60;99.90
8896;DHT22;4484;48.928;10.066;2023-09-19T05:43:41;14.60;99.90
8896;DHT22;4484;48.928;10.066;2023-09-19T05:46:08;14.70;99.90
8896;DHT22;4484;48.928;10.066;2023-09-19T05:48:36;14.70;99.90
8896;DHT22;4484;48.928;10.066;2023-09-19T05:51:03;14.70;99.90
8896;DHT22;4484;48.928;10.066;2023-09-19T05:53:30;14.80;99.90
8896;DHT22;4484;48.928;10.066;2023-09-19T05:55:57;14.80;99.90
8896;DHT22;4484;48.928;10.066;2023-09-19T05:58:24;14.80;99.90
8896;DHT22;4484;48.928;10.066;2023-09-19T06:00:51;14.80;99.90
8896;DHT22;4484;48.928;10.066;2023-09-19T06:03:18;14.80;99.90
8896;DHT22;4484;48.928;10.066;2023-09-19T06:05:47;14.90;99.90
8896;DHT22;4484;48.928;10.066;2023-09-19T06:08:16;14.90;99.90
8896;DHT22;4484;48.928;10.066;2023-09-19T06:10:43;14.90;99.90
8896;DHT22;4484;48.928;10.066;2023-09-19T06:13:10;14.90;99.90
8896;DHT22;4484;48.928;10.066;2023-09-19T06:15:37;14.90;99.90
8896;DHT22;4484;48.928;10.066;2023-09-19T06:18:04;14.80;99.90
8896;DHT22;4484;48.928;10.066;2023-09-19T06:20:32;14.80;99.90
8896;DHT22;4484;48.928;10.066;2023-09-19T06:23:00;14.70;99.90
8896;DHT22;4484;48.928;10.066;2023-09-19T06:25:29;14.70;99.90
8896;DHT22;4484;48.928;10.066;2023-09-19T06:27:56;14.70;99.90
8896;DHT22;4484;48.928;10.066;2023-09-19T06:30:24;14.60;99.90
8896;DHT22;4484;48.928;10.066;2023-09-19T06:32:57;14.60;99.90
8896;DHT22;4484;48.928;10.066;2023-09-19T06:35:25;14.60;99.90
8896;DHT22;4484;48.928;10.066;2023-09-19T06:37:57;14.50;99.90
8896;DHT22;4484;48.928;10.066;2023-09-19T06:40:25;14.50;99.90
8896;DHT22;4484;48.928;10.066;2023-09-19T06:42:53;14.50;99.90
8896;DHT22;4484;48.928;10.066;2023-09-19T06:45:20;14.40;99.90
8896;DHT22;4484;48.928;10.066;2023-09-19T06:47:51;14.40;99.90
8896;DHT22;4484;48.928;10.066;2023-09-19T06:50:20;14.30;99.90
8896;DHT22;4484;48.928;10.066;2023-09-19T06:52:50;14.30;99.90
8896;DHT22;4484;48.928;10.066;2023-09-19T06:55:20;14.40;99.90
8896;DHT22;4484;48.928;10.066;2023-09-19T06:57:48;14.30;99.90
8896;DHT22;4484;48.928;10.066;2023-09-19T07:00:15;14.30;99.90
8896;DHT22;4484;48.928;10.066;2023-09-19T07:02:45;14.30;99.90
8896;DHT22;4484;48.928;10.066;2023-09-19T07:05:21;14.30;99.90
8896;DHT22;4484;48.928;10.066;2023-09-19T07:07:48;14.20;99.90
8896;DHT22;4484;48.928;10.066;2023-09-19T07:10:16;14.20;99.90
8896;DHT22;4484;48.928;10.066;2023-09-19T07:12:45;14.20;99.90
8896;DHT22;4484;48.928;10.066;2023-09-19T07:15:12;14.20;99.90
8896;DHT22;4484;48.928;10.066;2023-09-19T07:17:39;14.20;99.90
8896;DHT22;4484;48.928;10.066;2023-09-19T07:20:06;14.30;99.90
8896;DHT22;4484;48.928;10.066;2023-09-19T07:22:34;14.30;99.90
8896;DHT22;4484;48.928;10.066;2023-09-19T07:25:03;14.40;99.90
8896;DHT22;4484;48.928;10.066;2023-09-19T07:27:30;14.40;99.90
8896;DHT22;4484;48.928;10.066;2023-09-19T07:29:57;14.50;99.90
8896;DHT22;4484;48.928;10.066;2023-09-19T07:32:24;14.50;99.90
8896;DHT22;4484;48.928;10.066;2023-09-19T07:34:51;14.60;99.90
8896;DHT22;4484;48.928;10.066;2023-09-19T07:37:18;14.60;99.90
8896;DHT22;4484;48.928;10.066;2023-09-19T07:39:45;14.60;99.90
8896;DHT22;4484;48.928;10.066;2023-09-19T07:42:12;14.60;99.90
8896;DHT22;4484;48.928;10.066;2023-09-19T07:44:44;14.70;99.90
8896;DHT22;4484;48.928;10.066;2023-09-19T07:47:17;14.80;99.90
8896;DHT22;4484;48.928;10.066;2023-09-19T07:49:46;14.90;99.90
8896;DHT22;4484;48.928;10.066;2023-09-19T07:52:14;15.10;99.90
8896;DHT22;4484;48.928;10.066;2023-09-19T07:54:42;15.30;99.90
8896;DHT22;4484;48.928;10.066;2023-09-19T07:57:11;15.40;99.90
8896;DHT22;4484;48.928;10.066;2023-09-19T07:59:38;15.60;99.90
8896;DHT22;4484;48.928;10.066;2023-09-19T08:02:05;15.80;99.90
8896;DHT22;4484;48.928;10.066;2023-09-19T08:04:35;15.90;99.90
8896;DHT22;4484;48.928;10.066;2023-09-19T08:07:03;16.00;99.90
8896;DHT22;4484;48.928;10.066;2023-09-19T08:09:31;16.10;99.90
8896;DHT22;4484;48.928;10.066;2023-09-19T08:12:00;16.30;99.90
8896;DHT22;4484;48.928;10.066;2023-09-19T08:14:32;16.40;99.90
8896;DHT22;4484;48.928;10.066;2023-09-19T08:16:59;16.80;99.90
8896;DHT22;4484;48.928;10.066;2023-09-19T08:19:27;16.90;99.90
8896;DHT22;4484;48.928;10.066;2023-09-19T08:21:58;17.00;99.90
8896;DHT22;4484;48.928;10.066;2023-09-19T08:24:26;17.10;99.90
8896;DHT22;4484;48.928;10.066;2023-09-19T08:26:57;17.20;99.90
8896;DHT22;4484;48.928;10.066;2023-09-19T08:29:24;17.40;99.90
8896;DHT22;4484;48.928;10.066;2023-09-19T08:31:55;17.80;99.90
8896;DHT22;4484;48.928;10.066;2023-09-19T08:34:24;17.90;99.90
8896;DHT22;4484;48.928;10.066;2023-09-19T08:36:52;18.00;99.90
8896;DHT22;4484;48.928;10.066;2023-09-19T08:39:24;17.90;99.90
8896;DHT22;4484;48.928;10.066;2023-09-19T08:41:58;18.00;99.90
8896;DHT22;4484;48.928;10.066;2023-09-19T08:44:28;18.20;99.90
8896;DHT22;4484;48.928;10.066;2023-09-19T08:49:37;18.60;99.90
8896;DHT22;4484;48.928;10.066;2023-09-19T08:52:35;18.90;99.90
8896;DHT22;4484;48.928;10.066;2023-09-19T08:55:06;19.30;99.90
8896;DHT22;4484;48.928;10.066;2023-09-19T08:57:36;19.60;99.90
8896;DHT22;4484;48.928;10.066;2023-09-19T09:00:08;19.70;99.90
8896;DHT22;4484;48.928;10.066;2023-09-19T09:02:43;19.90;99.90
8896;DHT22;4484;48.928;10.066;2023-09-19T09:05:10;19.90;99.90
8896;DHT22;4484;48.928;10.066;2023-09-19T09:07:38;19.80;99.90
8896;DHT22;4484;48.928;10.066;2023-09-19T09:10:06;20.00;99.90
8896;DHT22;4484;48.928;10.066;2023-09-19T09:12:35;19.90;99.90
8896;DHT22;4484;48.928;10.066;2023-09-19T09:15:04;19.90;99.90
8896;DHT22;4484;48.928;10.066;2023-09-19T09:17:31;19.70;99.90
8896;DHT22;4484;48.928;10.066;2023-09-19T09:19:58;19.60;99.90
8896;DHT22;4484;48.928;10.066;2023-09-19T09:22:26;19.50;99.90
8896;DHT22;4484;48.928;10.066;2023-09-19T09:24:57;19.40;99.90
8896;DHT22;4484;48.928;10.066;2023-09-19T09:27:31;19.10;99.90
8896;DHT22;4484;48.928;10.066;2023-09-19T09:29:59;18.90;99.90
8896;DHT22;4484;48.928;10.066;2023-09-19T09:32:30;18.80;99.90
8896;DHT22;4484;48.928;10.066;2023-09-19T09:35:01;18.80;99.90
8896;DHT22;4484;48.928;10.066;2023-09-19T09:37:29;18.70;99.90
8896;DHT22;4484;48.928;10.066;2023-09-19T09:40:02;18.60;99.90
8896;DHT22;4484;48.928;10.066;2023-09-19T09:42:41;18.80;99.90
8896;DHT22;4484;48.928;10.066;2023-09-19T09:47:45;19.00;99.90
8896;DHT22;4484;48.928;10.066;2023-09-19T09:50:35;19.00;99.90
8896;DHT22;4484;48.928;10.066;2023-09-19T09:56:09;19.60;99.90
8896;DHT22;4484;48.928;10.066;2023-09-19T09:58:50;20.30;99.90
8896;DHT22;4484;48.928;10.066;2023-09-19T10:01:21;21.20;99.90
8896;DHT22;4484;48.928;10.066;2023-09-19T10:03:48;21.70;99.90
8896;DHT22;4484;48.928;10.066;2023-09-19T10:06:18;21.90;99.90
8896;DHT22;4484;48.928;10.066;2023-09-19T10:09:08;21.90;99.90
8896;DHT22;4484;48.928;10.066;2023-09-19T10:11:46;22.20;99.90
8896;DHT22;4484;48.928;10.066;2023-09-19T10:14:17;22.30;99.90
8896;DHT22;4484;48.928;10.066;2023-09-19T10:16:52;22.40;99.90
8896;DHT22;4484;48.928;10.066;2023-09-19T10:19:30;22.30;99.90
8896;DHT22;4484;48.928;10.066;2023-09-19T10:22:01;22.10;99.90
8896;DHT22;4484;48.928;10.066;2023-09-19T10:24:30;22.00;99.90
8896;DHT22;4484;48.928;10.066;2023-09-19T10:26:59;21.90;99.90
8896;DHT22;4484;48.928;10.066;2023-09-19T10:29:28;21.80;99.90
8896;DHT22;4484;48.928;10.066;2023-09-19T10:31:58;22.00;99.90
8896;DHT22;4484;48.928;10.066;2023-09-19T10:34:27;22.00;99.90
8896;DHT22;4484;48.928;10.066;2023-09-19T10:36:56;21.90;99.90
8896;DHT22;4484;48.928;10.066;2023-09-19T10:39:23;21.80;99.90
8896;DHT22;4484;48.928;10.066;2023-09-19T10:41:53;21.70;99.90
8896;DHT22;4484;48.928;10.066;2023-09-19T10:44:24;21.80;99.90
8896;DHT22;4484;48.928;10.066;2023-09-19T10:46:55;22.10;99.90
8896;DHT22;4484;48.928;10.066;2023-09-19T10:49:23;22.20;99.90
8896;DHT22;4484;48.928;10.066;2023-09-19T10:51:55;22.10;99.90
8896;DHT22;4484;48.928;10.066;2023-09-19T10:54:29;22.00;99.90
8896;DHT22;4484;48.928;10.066;2023-09-19T10:56:57;22.10;99.90
8896;DHT22;4484;48.928;10.066;2023-09-19T10:59:26;22.30;99.90
8896;DHT22;4484;48.928;10.066;2023-09-19T11:02:16;22.70;99.90
8896;DHT22;4484;48.928;10.066;2023-09-19T11:04:44;23.10;99.90
8896;DHT22;4484;48.928;10.066;2023-09-19T11:07:15;23.50;99.90
8896;DHT22;4484;48.928;10.066;2023-09-19T11:09:55;23.70;99.90
8896;DHT22;4484;48.928;10.066;2023-09-19T11:14:59;23.80;99.90
8896;DHT22;4484;48.928;10.066;2023-09-19T11:17:42;23.70;99.90
8896;DHT22;4484;48.928;10.066;2023-09-19T11:30:34;22.40;99.90
8896;DHT22;4484;48.928;10.066;2023-09-19T11:36:14;21.90;99.90
8896;DHT22;4484;48.928;10.066;2023-09-19T11:41:39;22.10;99.90
8896;DHT22;4484;48.928;10.066;2023-09-19T11:46:34;22.10;99.90
8896;DHT22;4484;48.928;10.066;2023-09-19T11:49:08;22.20;99.90
8896;DHT22;4484;48.928;10.066;2023-09-19T11:51:41;22.20;99.90
8896;DHT22;4484;48.928;10.066;2023-09-19T11:54:14;22.10;99.90
8896;DHT22;4484;48.928;10.066;2023-09-19T11:56:45;21.90;99.90
8896;DHT22;4484;48.928;10.066;2023-09-19T11:59:29;21.80;99.90
8896;DHT22;4484;48.928;10.066;2023-09-19T12:02:00;22.20;99.90
8896;DHT22;4484;48.928;10.066;2023-09-19T12:04:40;22.70;99.90
8896;DHT22;4484;48.928;10.066;2023-09-19T12:07:15;22.80;99.90
8896;DHT22;4484;48.928;10.066;2023-09-19T12:09:45;22.80;99.90
8896;DHT22;4484;48.928;10.066;2023-09-19T12:12:23;22.70;99.90
8896;DHT22;4484;48.928;10.066;2023-09-19T12:14:50;22.80;99.90
8896;DHT22;4484;48.928;10.066;2023-09-19T12:17:18;23.10;99.90
8896;DHT22;4484;48.928;10.066;2023-09-19T12:19:52;23.30;99.90
8896;DHT22;4484;48.928;10.066;2023-09-19T12:22:20;23.80;99.90
8896;DHT22;4484;48.928;10.066;2023-09-19T12:24:47;23.90;99.90
8896;DHT22;4484;48.928;10.066;2023-09-19T12:27:15;23.50;99.90
8896;DHT22;4484;48.928;10.066;2023-09-19T12:29:43;23.40;99.90
8896;DHT22;4484;48.928;10.066;2023-09-19T12:32:10;23.40;99.90
8896;DHT22;4484;48.928;10.066;2023-09-19T12:34:38;23.60;99.90
8896;DHT22;4484;48.928;10.066;2023-09-19T12:37:14;23.60;99.90
8896;DHT22;4484;48.928;10.066;2023-09-19T12:40:08;23.70;99.90
8896;DHT22;4484;48.928;10.066;2023-09-19T12:42:45;23.70;99.90
8896;DHT22;4484;48.928;10.066;2023-09-19T12:45:14;24.10;99.90
8896;DHT22;4484;48.928;10.066;2023-09-19T12:51:08;25.00;99.90
8896;DHT22;4484;48.928;10.066;2023-09-19T12:53:44;25.40;98.90
8896;DHT22;4484;48.928;10.066;2023-09-19T12:56:15;25.00;99.00
8896;DHT22;4484;48.928;10.066;2023-09-19T12:58:55;24.40;97.20
8896;DHT22;4484;48.928;10.066;2023-09-19T13:01:24;23.80;98.60
8896;DHT22;4484;48.928;10.066;2023-09-19T13:04:21;23.20;97.70
8896;DHT22;4484;48.928;10.066;2023-09-19T13:06:56;22.60;98.30
8896;DHT22;4484;48.928;10.066;2023-09-19T13:09:28;22.40;99.90
8896;DHT22;4484;48.928;10.066;2023-09-19T13:12:02;22.20;99.90
8896;DHT22;4484;48.928;10.066;2023-09-19T13:14:30;22.10;99.90
8896;DHT22;4484;48.928;10.066;2023-09-19T13:17:07;22.40;99.90
8896;DHT22;4484;48.928;10.066;2023-09-19T13:19:51;22.80;99.90
8896;DHT22;4484;48.928;10.066;2023-09-19T13:25:16;23.50;99.90
8896;DHT22;4484;48.928;10.066;2023-09-19T13:27:48;23.60;98.50
8896;DHT22;4484;48.928;10.066;2023-09-19T13:30:18;23.80;99.80
8896;DHT22;4484;48.928;10.066;2023-09-19T13:32:45;23.80;99.00
8896;DHT22;4484;48.928;10.066;2023-09-19T13:35:15;23.70;99.80
8896;DHT22;4484;48.928;10.066;2023-09-19T13:37:42;23.80;98.30
8896;DHT22;4484;48.928;10.066;2023-09-19T13:40:11;23.80;98.80
8896;DHT22;4484;48.928;10.066;2023-09-19T13:42:39;23.80;99.50
8896;DHT22;4484;48.928;10.066;2023-09-19T13:45:07;23.70;98.00
8896;DHT22;4484;48.928;10.066;2023-09-19T13:47:34;23.50;97.80
8896;DHT22;4484;48.928;10.066;2023-09-19T13:50:03;23.40;98.70
8896;DHT22;4484;48.928;10.066;2023-09-19T13:52:31;23.10;99.20
8896;DHT22;4484;48.928;10.066;2023-09-19T13:54:59;23.10;99.20
8896;DHT22;4484;48.928;10.066;2023-09-19T13:57:26;23.30;99.20
8896;DHT22;4484;48.928;10.066;2023-09-19T13:59:53;23.30;98.00
8896;DHT22;4484;48.928;10.066;2023-09-19T14:02:22;23.30;98.90
8896;DHT22;4484;48.928;10.066;2023-09-19T14:04:52;23.40;99.30
8896;DHT22;4484;48.928;10.066;2023-09-19T14:07:19;23.40;99.30
8896;DHT22;4484;48.928;10.066;2023-09-19T14:09:47;23.40;98.20
8896;DHT22;4484;48.928;10.066;2023-09-19T14:12:15;23.40;99.20
8896;DHT22;4484;48.928;10.066;2023-09-19T14:14:42;23.40;98.80
8896;DHT22;4484;48.928;10.066;2023-09-19T14:17:09;23.30;98.20
8896;DHT22;4484;48.928;10.066;2023-09-19T14:19:37;23.20;97.50
8896;DHT22;4484;48.928;10.066;2023-09-19T14:22:04;23.00;98.40
8896;DHT22;4484;48.928;10.066;2023-09-19T14:24:35;22.90;99.90
8896;DHT22;4484;48.928;10.066;2023-09-19T14:27:03;22.70;99.00
8896;DHT22;4484;48.928;10.066;2023-09-19T14:29:31;22.60;99.50
8896;DHT22;4484;48.928;10.066;2023-09-19T14:31:59;22.60;98.80
8896;DHT22;4484;48.928;10.066;2023-09-19T14:34:26;22.50;98.90
8896;DHT22;4484;48.928;10.066;2023-09-19T14:36:53;22.40;99.20
8896;DHT22;4484;48.928;10.066;2023-09-19T14:39:21;22.50;99.90
8896;DHT22;4484;48.928;10.066;2023-09-19T14:41:48;22.50;99.40
8896;DHT22;4484;48.928;10.066;2023-09-19T14:44:16;22.50;99.70
8896;DHT22;4484;48.928;10.066;2023-09-19T14:46:43;22.30;99.50
8896;DHT22;4484;48.928;10.066;2023-09-19T14:49:13;22.00;99.30
8896;DHT22;4484;48.928;10.066;2023-09-19T14:51:42;21.80;99.80
8896;DHT22;4484;48.928;10.066;2023-09-19T14:54:14;21.70;99.90
8896;DHT22;4484;48.928;10.066;2023-09-19T14:56:44;21.60;99.90
8896;DHT22;4484;48.928;10.066;2023-09-19T14:59:11;21.50;99.90
8896;DHT22;4484;48.928;10.066;2023-09-19T15:01:38;21.40;99.90
8896;DHT22;4484;48.928;10.066;2023-09-19T15:04:05;21.40;99.90
8896;DHT22;4484;48.928;10.066;2023-09-19T15:06:33;21.40;99.90
8896;DHT22;4484;48.928;10.066;2023-09-19T15:09:00;21.30;99.90
8896;DHT22;4484;48.928;10.066;2023-09-19T15:11:28;21.30;99.90
8896;DHT22;4484;48.928;10.066;2023-09-19T15:13:55;21.20;99.90
8896;DHT22;4484;48.928;10.066;2023-09-19T15:16:23;21.10;99.90
8896;DHT22;4484;48.928;10.066;2023-09-19T15:18:50;21.00;99.90
8896;DHT22;4484;48.928;10.066;2023-09-19T15:21:19;20.90;99.90
8896;DHT22;4484;48.928;10.066;2023-09-19T15:23:46;20.80;99.90
8896;DHT22;4484;48.928;10.066;2023-09-19T15:26:14;20.70;99.90
8896;DHT22;4484;48.928;10.066;2023-09-19T15:28:47;20.60;99.90
8896;DHT22;4484;48.928;10.066;2023-09-19T15:31:15;20.50;99.90
8896;DHT22;4484;48.928;10.066;2023-09-19T15:33:42;20.50;99.90
8896;DHT22;4484;48.928;10.066;2023-09-19T15:36:11;20.50;99.90
8896;DHT22;4484;48.928;10.066;2023-09-19T15:41:25;20.40;99.90
8896;DHT22;4484;48.928;10.066;2023-09-19T15:43:52;20.50;99.90
8896;DHT22;4484;48.928;10.066;2023-09-19T15:46:20;20.40;99.90
8896;DHT22;4484;48.928;10.066;2023-09-19T15:48:48;20.40;99.90
8896;DHT22;4484;48.928;10.066;2023-09-19T15:51:15;20.40;99.90
8896;DHT22;4484;48.928;10.066;2023-09-19T15:53:47;20.30;99.90
8896;DHT22;4484;48.928;10.066;2023-09-19T15:56:18;20.20;99.90
8896;DHT22;4484;48.928;10.066;2023-09-19T15:58:49;20.20;99.90
8896;DHT22;4484;48.928;10.066;2023-09-19T16:01:17;20.20;99.90
8896;DHT22;4484;48.928;10.066;2023-09-19T16:03:47;20.00;99.90
8896;DHT22;4484;48.928;10.066;2023-09-19T16:06:17;19.90;99.90
8896;DHT22;4484;48.928;10.066;2023-09-19T16:08:48;19.80;99.90
8896;DHT22;4484;48.928;10.066;2023-09-19T16:11:16;19.70;99.90
8896;DHT22;4484;48.928;10.066;2023-09-19T16:13:45;19.70;99.90
8896;DHT22;4484;48.928;10.066;2023-09-19T16:16:12;19.50;99.90
8896;DHT22;4484;48.928;10.066;2023-09-19T16:18:52;19.50;99.90
8896;DHT22;4484;48.928;10.066;2023-09-19T16:21:24;19.40;99.90
8896;DHT22;4484;48.928;10.066;2023-09-19T16:23:51;19.30;99.90
8896;DHT22;4484;48.928;10.066;2023-09-19T16:26:18;19.20;99.90
8896;DHT22;4484;48.928;10.066;2023-09-19T16:28:53;19.10;99.90
8896;DHT22;4484;48.928;10.066;2023-09-19T16:31:20;19.10;99.90
8896;DHT22;4484;48.928;10.066;2023-09-19T16:33:48;19.00;99.90
8896;DHT22;4484;48.928;10.066;2023-09-19T16:36:17;18.90;99.90
8896;DHT22;4484;48.928;10.066;2023-09-19T16:38:45;18.80;99.90
8896;DHT22;4484;48.928;10.066;2023-09-19T16:41:13;18.80;99.90
8896;DHT22;4484;48.928;10.066;2023-09-19T16:43:41;18.70;99.90
8896;DHT22;4484;48.928;10.066;2023-09-19T16:46:09;18.60;99.90
8896;DHT22;4484;48.928;10.066;2023-09-19T16:48:40;18.50;99.90
8896;DHT22;4484;48.928;10.066;2023-09-19T16:51:27;18.50;99.90
8896;DHT22;4484;48.928;10.066;2023-09-19T16:53:55;18.40;99.90
8896;DHT22;4484;48.928;10.066;2023-09-19T16:56:23;18.40;99.90